createdAt,value
2023-05-06T00:01:39.153Z,98053.15
2023-05-06T00:04:07.331Z,98053.34
2023-05-06T00:06:35.974Z,98052.02
2023-05-06T00:09:04.501Z,98050.69
2023-05-06T00:11:32.639Z,98050.95
2023-05-06T00:14:00.722Z,98048.83
2023-05-06T00:16:28.819Z,98052.45
2023-05-06T00:18:57.342Z,98051.96
2023-05-06T00:21:27.353Z,98049.78
2023-05-06T00:23:55.731Z,98049.98
2023-05-06T00:26:23.829Z,98050.44
2023-05-06T00:28:51.905Z,98054.67
2023-05-06T00:31:20.272Z,98055.36
2023-05-06T00:33:48.571Z,98053.38
2023-05-06T00:36:16.809Z,98055.88
2023-05-06T00:38:44.894Z,98061.45
2023-05-06T00:41:13.312Z,98062.25
2023-05-06T00:43:42.052Z,98063.54
2023-05-06T00:46:11.886Z,98063.64
2023-05-06T00:48:41.001Z,98064.11
2023-05-06T00:51:09.480Z,98063.23
2023-05-06T00:53:37.799Z,98063.79
2023-05-06T00:56:06.583Z,98067.12
2023-05-06T00:58:35.398Z,98068.58
2023-05-06T01:01:03.595Z,98070.09
2023-05-06T01:03:31.926Z,98072.52
2023-05-06T01:06:30.548Z,98070.90
2023-05-06T01:09:11.608Z,98070.04
2023-05-06T01:11:50.932Z,98070.41
2023-05-06T01:14:22.069Z,98069.23
2023-05-06T01:16:56.221Z,98067.98
2023-05-06T01:19:53.590Z,98069.88
2023-05-06T01:22:23.591Z,98068.86
2023-05-06T01:24:51.701Z,98073.20
2023-05-06T01:27:22.009Z,98074.81
2023-05-06T01:29:50.257Z,98077.36
2023-05-06T01:32:42.070Z,98074.02
2023-05-06T01:35:34.184Z,98077.13
2023-05-06T01:38:14.772Z,98080.75
2023-05-06T01:40:46.958Z,98080.73
2023-05-06T01:43:17.137Z,98074.98
2023-05-06T01:45:53.230Z,98076.98
2023-05-06T01:48:26.003Z,98077.02
2023-05-06T01:50:54.122Z,98075.66
2023-05-06T01:53:22.530Z,98075.02
2023-05-06T01:55:50.703Z,98075.58
2023-05-06T01:58:18.740Z,98077.81
2023-05-06T02:00:47.023Z,98078.20
2023-05-06T02:03:15.574Z,98081.83
2023-05-06T02:05:43.904Z,98080.83
2023-05-06T02:08:12.816Z,98078.83
2023-05-06T02:10:41.070Z,98075.09
2023-05-06T02:13:11.486Z,98082.67
2023-05-06T02:15:39.880Z,98082.68
2023-05-06T02:18:11.841Z,98084.27
2023-05-06T02:20:40.187Z,98079.67
2023-05-06T02:23:08.696Z,98082.58
2023-05-06T02:25:36.862Z,98084.50
2023-05-06T02:28:05.024Z,98085.13
2023-05-06T02:30:34.666Z,98086.30
2023-05-06T02:33:03.210Z,98084.02
2023-05-06T02:35:31.497Z,98083.85
2023-05-06T02:38:00.025Z,98082.16
2023-05-06T02:40:28.893Z,98078.38
2023-05-06T02:42:57.019Z,98080.38
2023-05-06T02:45:25.360Z,98076.34
2023-05-06T02:47:54.637Z,98084.14
2023-05-06T02:50:22.752Z,98079.19
2023-05-06T02:52:51.397Z,98082.45
2023-05-06T02:55:19.656Z,98080.86
2023-05-06T02:57:47.793Z,98082.23
2023-05-06T03:00:16.790Z,98083.32
2023-05-06T03:02:45.204Z,98081.73
2023-05-06T03:05:13.572Z,98084.90
2023-05-06T03:07:41.634Z,98082.88
2023-05-06T03:10:10.868Z,98082.64
2023-05-06T03:12:39.464Z,98082.34
2023-05-06T03:15:08.470Z,98087.36
2023-05-06T03:17:37.935Z,98083.38
2023-05-06T03:20:08.834Z,98084.80
2023-05-06T03:22:38.654Z,98088.16
2023-05-06T03:25:08.032Z,98086.50
2023-05-06T03:27:37.054Z,98085.64
2023-05-06T03:30:11.187Z,98081.60
2023-05-06T03:32:40.874Z,98076.45
2023-05-06T03:35:11.841Z,98081.29
2023-05-06T03:37:40.887Z,98083.39
2023-05-06T03:40:10.035Z,98083.64
2023-05-06T03:42:38.538Z,98083.63
2023-05-06T03:45:07.931Z,98088.26
2023-05-06T03:47:38.378Z,98090.95
2023-05-06T03:50:08.535Z,98090.24
2023-05-06T03:52:37.008Z,98087.14
2023-05-06T03:55:06.630Z,98087.86
2023-05-06T03:57:35.418Z,98089.29
2023-05-06T04:00:04.369Z,98092.21
2023-05-06T04:02:35.482Z,98091.92
2023-05-06T04:05:04.708Z,98097.84
2023-05-06T04:07:33.006Z,98100.39
2023-05-06T04:10:01.084Z,98102.51
2023-05-06T04:12:29.355Z,98104.61
2023-05-06T04:14:58.343Z,98102.86
2023-05-06T04:17:26.569Z,98104.60
2023-05-06T04:19:55.716Z,98107.13
2023-05-06T04:22:23.666Z,98110.04
2023-05-06T04:24:52.164Z,98115.34
2023-05-06T04:27:20.857Z,98118.21
2023-05-06T04:29:48.992Z,98119.38
2023-05-06T04:32:18.177Z,98122.03
2023-05-06T04:34:47.447Z,98123.05
2023-05-06T04:37:16.269Z,98127.48
2023-05-06T04:39:52.185Z,98126.27
2023-05-06T04:42:20.539Z,98125.73
2023-05-06T04:44:59.538Z,98127.45
2023-05-06T04:47:29.355Z,98129.61
2023-05-06T04:49:57.653Z,98125.91
2023-05-06T04:52:26.359Z,98121.91
2023-05-06T04:54:54.824Z,98128.05
2023-05-06T04:57:23.987Z,98126.02
2023-05-06T04:59:52.358Z,98130.89
2023-05-06T05:02:20.687Z,98133.92
2023-05-06T05:04:49.179Z,98131.76
2023-05-06T05:07:17.734Z,98134.27
2023-05-06T05:09:45.786Z,98133.36
2023-05-06T05:12:14.164Z,98132.55
2023-05-06T05:14:44.627Z,98130.55
2023-05-06T05:17:13.078Z,98129.87
2023-05-06T05:19:41.712Z,98128.22
2023-05-06T05:22:09.951Z,98130.07
2023-05-06T05:24:39.052Z,98128.81
2023-05-06T05:27:07.665Z,98127.14
2023-05-06T05:29:36.150Z,98125.09
2023-05-06T05:32:05.146Z,98123.30
2023-05-06T05:34:34.920Z,98123.48
2023-05-06T05:37:03.557Z,98126.19
2023-05-06T05:39:32.394Z,98125.82
2023-05-06T05:42:00.763Z,98123.99
2023-05-06T05:44:29.668Z,98121.96
2023-05-06T05:46:59.540Z,98118.65
2023-05-06T05:49:27.713Z,98114.52
2023-05-06T05:51:56.375Z,98113.77
2023-05-06T05:54:24.762Z,98108.91
2023-05-06T05:56:52.945Z,98105.41
2023-05-06T05:59:21.217Z,98107.79
2023-05-06T06:01:49.698Z,98109.27
2023-05-06T06:04:18.134Z,98106.99
2023-05-06T06:06:46.474Z,98110.16
2023-05-06T06:09:14.904Z,98108.96
2023-05-06T06:11:43.511Z,98110.39
2023-05-06T06:14:12.312Z,98110.76
2023-05-06T06:16:41.218Z,98108.04
2023-05-06T06:19:09.630Z,98108.20
2023-05-06T06:21:38.400Z,98103.91
2023-05-06T06:24:06.981Z,98106.27
2023-05-06T06:26:34.954Z,98110.14
2023-05-06T06:29:03.332Z,98107.45
2023-05-06T06:31:31.437Z,98110.30
2023-05-06T06:33:59.577Z,98114.55
2023-05-06T06:36:27.745Z,98111.11
2023-05-06T06:38:55.895Z,98108.22
2023-05-06T06:41:24.175Z,98109.61
2023-05-06T06:43:52.270Z,98109.28
2023-05-06T06:46:25.481Z,98116.69
2023-05-06T06:48:53.874Z,98112.73
2023-05-06T06:51:21.947Z,98110.07
2023-05-06T06:53:51.733Z,98104.56
2023-05-06T06:56:19.993Z,98108.64
2023-05-06T06:58:48.236Z,98099.44
2023-05-06T07:01:16.478Z,98099.34
2023-05-06T07:03:44.633Z,98100.92
2023-05-06T07:06:12.917Z,98095.83
2023-05-06T07:08:41.376Z,98093.11
2023-05-06T07:11:09.558Z,98095.58
2023-05-06T07:13:37.809Z,98093.33
2023-05-06T07:16:06.005Z,98090.91
2023-05-06T07:18:34.181Z,98088.09
2023-05-06T07:21:02.145Z,98095.69
2023-05-06T07:23:31.909Z,98091.02
2023-05-06T07:26:00.449Z,98090.02
2023-05-06T07:28:28.621Z,98092.20
2023-05-06T07:30:56.720Z,98091.27
2023-05-06T07:33:25.062Z,98088.96
2023-05-06T07:35:54.884Z,98088.57
2023-05-06T07:38:23.173Z,98087.70
2023-05-06T07:40:52.036Z,98088.65
2023-05-06T07:43:22.060Z,98079.70
2023-05-06T07:45:50.650Z,98079.80
2023-05-06T07:48:20.112Z,98080.17
2023-05-06T07:50:49.121Z,98085.34
2023-05-06T07:53:17.230Z,98087.58
2023-05-06T07:55:45.384Z,98088.63
2023-05-06T07:58:13.659Z,98085.95
2023-05-06T08:00:41.834Z,98080.64
2023-05-06T08:03:10.246Z,98079.45
2023-05-06T08:05:38.246Z,98087.77
2023-05-06T08:08:06.309Z,98084.79
2023-05-06T08:10:34.691Z,98082.10
2023-05-06T08:13:03.381Z,98082.00
2023-05-06T08:15:31.899Z,98084.05
2023-05-06T08:18:07.063Z,98076.17
2023-05-06T08:20:42.503Z,98071.48
2023-05-06T08:23:10.892Z,98072.27
2023-05-06T08:25:39.150Z,98080.92
2023-05-06T08:28:07.192Z,98081.45
2023-05-06T08:30:35.583Z,98075.25
2023-05-06T08:33:04.130Z,98079.80
2023-05-06T08:35:32.205Z,98078.97
2023-05-06T08:38:00.277Z,98073.84
2023-05-06T08:40:32.709Z,98067.23
2023-05-06T08:43:04.150Z,98078.35
2023-05-06T08:45:33.119Z,98084.42
2023-05-06T08:48:01.550Z,98084.86
2023-05-06T08:50:29.997Z,98073.84
2023-05-06T08:52:58.358Z,98074.98
2023-05-06T08:55:26.922Z,98075.42
2023-05-06T08:57:54.874Z,98079.90
2023-05-06T09:00:23.084Z,98075.73
2023-05-06T09:02:51.291Z,98075.52
2023-05-06T09:05:19.521Z,98070.70
2023-05-06T09:07:47.608Z,98057.84
2023-05-06T09:10:17.952Z,98064.54
2023-05-06T09:12:46.214Z,98072.70
2023-05-06T09:15:14.337Z,98066.51
2023-05-06T09:17:42.759Z,98066.61
2023-05-06T09:20:12.220Z,98066.50
2023-05-06T09:22:41.082Z,98060.39
2023-05-06T09:25:12.113Z,98052.84
2023-05-06T09:27:40.481Z,98053.19
2023-05-06T09:30:14.630Z,98060.56
2023-05-06T09:32:44.134Z,98060.64
2023-05-06T09:35:12.697Z,98059.62
2023-05-06T09:37:41.788Z,98056.66
2023-05-06T09:40:10.368Z,98060.13
2023-05-06T09:42:39.064Z,98058.63
2023-05-06T09:45:08.976Z,98057.66
2023-05-06T09:47:38.470Z,98049.82
2023-05-06T09:50:09.421Z,98043.03
2023-05-06T09:52:37.780Z,98046.59
2023-05-06T09:55:07.779Z,98042.75
2023-05-06T09:57:37.809Z,98034.82
2023-05-06T10:00:09.319Z,98033.80
2023-05-06T10:02:45.734Z,98028.79
2023-05-06T10:05:14.814Z,98033.08
2023-05-06T10:07:43.750Z,98023.77
2023-05-06T10:10:12.235Z,98021.18
2023-05-06T10:12:40.571Z,98026.40
2023-05-06T10:15:09.675Z,98015.98
2023-05-06T10:17:40.880Z,98008.61
2023-05-06T10:20:13.776Z,98007.59
2023-05-06T10:23:16.745Z,97998.93
2023-05-06T10:25:46.892Z,98002.08
2023-05-06T10:28:26.415Z,98003.42
2023-05-06T10:31:00.202Z,98001.48
2023-05-06T10:33:28.673Z,98003.86
2023-05-06T10:36:20.301Z,98001.41
2023-05-06T10:39:00.204Z,98000.48
2023-05-06T10:41:30.458Z,97996.55
2023-05-06T10:44:00.102Z,97994.80
2023-05-06T10:46:30.863Z,97994.23
2023-05-06T10:49:06.105Z,97987.38
2023-05-06T10:51:43.910Z,97983.67
2023-05-06T10:54:23.056Z,97980.54
2023-05-06T10:56:51.311Z,97981.86
2023-05-06T10:59:24.684Z,97983.50
2023-05-06T11:01:57.234Z,97981.64
2023-05-06T11:04:25.981Z,97977.95
2023-05-06T11:06:54.259Z,97978.52
2023-05-06T11:09:24.797Z,97968.00
2023-05-06T11:11:58.389Z,97968.61
2023-05-06T11:14:46.721Z,97963.78
2023-05-06T11:17:35.070Z,97964.41
2023-05-06T11:20:24.203Z,97963.81
2023-05-06T11:22:53.483Z,97962.38
2023-05-06T11:25:41.688Z,97959.06
2023-05-06T11:28:16.237Z,97957.77
2023-05-06T11:30:54.610Z,97953.77
2023-05-06T11:33:26.166Z,97944.98
2023-05-06T11:35:54.442Z,97945.41
2023-05-06T11:38:22.574Z,97939.72
2023-05-06T11:40:50.781Z,97941.95
2023-05-06T11:43:18.957Z,97946.73
2023-05-06T11:45:50.102Z,97941.03
2023-05-06T11:48:18.826Z,97945.32
2023-05-06T11:50:47.793Z,97944.43
2023-05-06T11:53:21.297Z,97936.79
2023-05-06T11:55:52.886Z,97931.40
2023-05-06T11:58:30.492Z,97925.65
2023-05-06T12:01:01.191Z,97930.23
2023-05-06T12:03:31.985Z,97928.52
2023-05-06T12:06:01.413Z,97925.92
2023-05-06T12:08:34.737Z,97922.56
2023-05-06T12:11:05.830Z,97925.92
2023-05-06T12:13:36.856Z,97924.23
2023-05-06T12:16:08.107Z,97921.91
2023-05-06T12:18:36.868Z,97920.05
2023-05-06T12:21:06.223Z,97919.02
2023-05-06T12:23:34.291Z,97919.50
2023-05-06T12:26:05.869Z,97925.08
2023-05-06T12:28:36.525Z,97928.79
2023-05-06T12:31:24.445Z,97922.49
2023-05-06T12:33:53.048Z,97914.21
2023-05-06T12:36:22.487Z,97904.02
2023-05-06T12:38:55.616Z,97905.65
2023-05-06T12:41:35.397Z,97904.38
2023-05-06T12:44:04.698Z,97899.56
2023-05-06T12:46:32.909Z,97898.21
2023-05-06T12:49:02.500Z,97897.28
2023-05-06T12:51:33.527Z,97893.14
2023-05-06T12:54:01.570Z,97891.95
2023-05-06T12:56:30.002Z,97893.57
2023-05-06T12:59:02.484Z,97887.32
2023-05-06T13:01:31.855Z,97883.35
2023-05-06T13:04:00.182Z,97881.38
2023-05-06T13:06:28.442Z,97871.61
2023-05-06T13:08:56.703Z,97870.63
2023-05-06T13:11:25.854Z,97872.16
2023-05-06T13:13:54.089Z,97878.02
2023-05-06T13:16:22.261Z,97878.73
2023-05-06T13:18:50.590Z,97876.11
2023-05-06T13:21:18.802Z,97872.23
2023-05-06T13:23:48.088Z,97865.39
2023-05-06T13:26:17.443Z,97862.75
2023-05-06T13:28:46.086Z,97867.45
2023-05-06T13:31:14.203Z,97873.83
2023-05-06T13:33:42.601Z,97873.05
2023-05-06T13:36:10.736Z,97868.81
2023-05-06T13:38:39.399Z,97865.98
2023-05-06T13:41:07.617Z,97865.70
2023-05-06T13:43:35.838Z,97858.67
2023-05-06T13:46:04.101Z,97857.38
2023-05-06T13:48:32.290Z,97851.90
2023-05-06T13:51:00.484Z,97852.93
2023-05-06T13:53:28.530Z,97851.41
2023-05-06T13:55:56.895Z,97853.20
2023-05-06T13:58:25.191Z,97848.17
2023-05-06T14:00:53.450Z,97849.48
2023-05-06T14:03:21.641Z,97850.70
2023-05-06T14:05:49.987Z,97849.50
2023-05-06T14:08:18.194Z,97845.89
2023-05-06T14:10:46.805Z,97841.47
2023-05-06T14:13:15.137Z,97836.89
2023-05-06T14:15:44.456Z,97838.73
2023-05-06T14:18:12.800Z,97839.40
2023-05-06T14:20:41.823Z,97839.61
2023-05-06T14:23:10.120Z,97834.09
2023-05-06T14:25:38.685Z,97832.64
2023-05-06T14:28:07.611Z,97835.12
2023-05-06T14:30:35.873Z,97834.13
2023-05-06T14:33:04.045Z,97834.20
2023-05-06T14:35:32.727Z,97832.17
2023-05-06T14:38:01.289Z,97835.53
2023-05-06T14:40:29.674Z,97835.41
2023-05-06T14:42:57.944Z,97829.59
2023-05-06T14:45:26.075Z,97829.11
2023-05-06T14:47:54.451Z,97827.09
2023-05-06T14:50:22.782Z,97834.66
2023-05-06T14:52:51.184Z,97834.14
2023-05-06T14:55:20.468Z,97832.58
2023-05-06T14:57:48.834Z,97830.77
2023-05-06T15:00:17.484Z,97829.17
2023-05-06T15:02:46.332Z,97828.66
2023-05-06T15:05:14.747Z,97823.63
2023-05-06T15:07:43.384Z,97820.48
2023-05-06T15:10:11.541Z,97820.47
2023-05-06T15:12:39.652Z,97819.48
2023-05-06T15:15:08.774Z,97819.98
2023-05-06T15:17:37.727Z,97815.34
2023-05-06T15:20:07.312Z,97818.05
2023-05-06T15:22:37.206Z,97821.29
2023-05-06T15:25:09.448Z,97818.85
2023-05-06T15:27:40.533Z,97818.44
2023-05-06T15:30:09.149Z,97816.98
2023-05-06T15:32:37.468Z,97814.45
2023-05-06T15:35:06.516Z,97816.21
2023-05-06T15:37:35.069Z,97817.33
2023-05-06T15:40:05.293Z,97817.80
2023-05-06T15:42:33.622Z,97815.56
2023-05-06T15:45:01.716Z,97814.08
2023-05-06T15:47:29.959Z,97814.38
2023-05-06T15:49:59.629Z,97810.59
2023-05-06T15:52:28.342Z,97813.91
2023-05-06T15:54:59.888Z,97811.27
2023-05-06T15:57:31.415Z,97815.23
2023-05-06T15:59:59.621Z,97815.27
2023-05-06T16:02:28.422Z,97812.63
2023-05-06T16:04:57.195Z,97810.83
2023-05-06T16:07:26.587Z,97815.16
2023-05-06T16:09:54.646Z,97813.89
2023-05-06T16:12:23.015Z,97810.70
2023-05-06T16:14:51.366Z,97807.77
2023-05-06T16:17:19.590Z,97805.05
2023-05-06T16:19:47.607Z,97801.83
2023-05-06T16:22:15.780Z,97801.77
2023-05-06T16:24:44.085Z,97801.52
2023-05-06T16:27:12.366Z,97800.08
2023-05-06T16:29:40.756Z,97800.84
2023-05-06T16:32:08.889Z,97805.67
2023-05-06T16:34:38.959Z,97802.60
2023-05-06T16:37:09.053Z,97808.55
2023-05-06T16:39:37.104Z,97808.77
2023-05-06T16:42:05.472Z,97806.52
2023-05-06T16:44:33.547Z,97809.70
2023-05-06T16:47:01.974Z,97808.33
2023-05-06T16:49:30.432Z,97808.96
2023-05-06T16:52:00.624Z,97807.70
2023-05-06T16:54:29.037Z,97810.23
2023-05-06T16:56:57.314Z,97809.71
2023-05-06T16:59:25.689Z,97811.73
2023-05-06T17:01:53.878Z,97813.00
2023-05-06T17:04:24.726Z,97810.34
2023-05-06T17:06:52.944Z,97806.58
2023-05-06T17:09:22.753Z,97807.27
2023-05-06T17:11:51.163Z,97806.80
2023-05-06T17:14:20.161Z,97811.40
2023-05-06T17:16:49.483Z,97815.74
2023-05-06T17:19:17.730Z,97821.58
2023-05-06T17:21:46.038Z,97821.33
2023-05-06T17:24:14.665Z,97821.92
2023-05-06T17:26:42.787Z,97819.27
2023-05-06T17:29:10.871Z,97822.46
2023-05-06T17:31:39.003Z,97826.92
2023-05-06T17:34:07.630Z,97827.89
2023-05-06T17:36:35.838Z,97829.48
2023-05-06T17:39:07.747Z,97829.95
2023-05-06T17:41:35.955Z,97832.39
2023-05-06T17:44:04.181Z,97832.88
2023-05-06T17:46:33.675Z,97832.55
2023-05-06T17:49:01.972Z,97834.48
2023-05-06T17:51:30.128Z,97838.11
2023-05-06T17:53:58.218Z,97839.85
2023-05-06T17:56:26.671Z,97845.45
2023-05-06T17:58:54.831Z,97849.33
2023-05-06T18:01:23.067Z,97854.84
2023-05-06T18:03:51.422Z,97856.88
2023-05-06T18:06:19.785Z,97864.36
2023-05-06T18:08:47.955Z,97866.27
2023-05-06T18:11:17.433Z,97870.48
2023-05-06T18:13:45.558Z,97873.23
2023-05-06T18:16:14.019Z,97876.64
2023-05-06T18:18:43.062Z,97883.02
2023-05-06T18:21:11.424Z,97892.02
2023-05-06T18:23:39.436Z,97895.67
2023-05-06T18:26:07.491Z,97903.46
2023-05-06T18:28:41.439Z,97896.77
2023-05-06T18:31:09.778Z,97897.71
2023-05-06T18:33:38.198Z,97901.02
2023-05-06T18:36:06.834Z,97905.48
2023-05-06T18:38:34.946Z,97904.71
2023-05-06T18:41:03.322Z,97906.56
2023-05-06T18:43:31.704Z,97907.04
2023-05-06T18:46:00.217Z,97907.90
2023-05-06T18:48:31.006Z,97909.30
2023-05-06T18:51:13.869Z,97918.23
2023-05-06T18:53:42.221Z,97920.11
2023-05-06T18:56:11.420Z,97912.30
2023-05-06T18:58:40.285Z,97912.13
2023-05-06T19:01:10.079Z,97914.73
2023-05-06T19:03:38.574Z,97919.33
2023-05-06T19:06:10.876Z,97916.60
2023-05-06T19:08:39.241Z,97918.77
2023-05-06T19:11:15.038Z,97929.83
2023-05-06T19:13:44.111Z,97931.41
2023-05-06T19:16:13.092Z,97931.49
2023-05-06T19:18:41.875Z,97934.27
2023-05-06T19:21:11.532Z,97938.54
2023-05-06T19:23:39.728Z,97939.13
2023-05-06T19:26:11.308Z,97936.34
2023-05-06T19:28:40.499Z,97936.84
2023-05-06T19:31:10.299Z,97932.86
2023-05-06T19:33:39.405Z,97927.83
2023-05-06T19:36:07.520Z,97928.38
2023-05-06T19:38:35.690Z,97927.39
2023-05-06T19:41:04.488Z,97929.02
2023-05-06T19:43:32.720Z,97937.23
2023-05-06T19:46:01.270Z,97940.86
2023-05-06T19:48:30.193Z,97949.73
2023-05-06T19:50:58.362Z,97949.67
2023-05-06T19:53:26.641Z,97947.85
2023-05-06T19:56:01.708Z,97950.22
2023-05-06T19:58:30.136Z,97953.06
2023-05-06T20:00:58.433Z,97952.71
2023-05-06T20:03:26.816Z,97948.04
2023-05-06T20:05:55.326Z,97951.02
2023-05-06T20:08:24.490Z,97951.34
2023-05-06T20:10:53.391Z,97953.33
2023-05-06T20:13:21.645Z,97950.94
2023-05-06T20:15:50.615Z,97946.80
2023-05-06T20:18:19.203Z,97946.27
2023-05-06T20:20:47.343Z,97945.04
2023-05-06T20:23:15.576Z,97940.05
2023-05-06T20:25:43.852Z,97942.95
2023-05-06T20:28:12.128Z,97945.72
2023-05-06T20:30:40.381Z,97947.73
2023-05-06T20:33:09.864Z,97948.75
2023-05-06T20:35:40.479Z,97944.63
2023-05-06T20:38:09.537Z,97942.47
2023-05-06T20:40:38.017Z,97944.58
2023-05-06T20:43:06.389Z,97944.38
2023-05-06T20:45:34.935Z,97942.79
2023-05-06T20:48:03.423Z,97939.80
2023-05-06T20:50:31.931Z,97937.45
2023-05-06T20:53:00.861Z,97936.20
2023-05-06T20:55:28.947Z,97932.76
2023-05-06T20:57:57.219Z,97932.31
2023-05-06T21:00:25.792Z,97934.02
2023-05-06T21:02:54.064Z,97939.64
2023-05-06T21:05:22.297Z,97937.19
2023-05-06T21:07:50.375Z,97935.63
2023-05-06T21:10:18.466Z,97936.42
2023-05-06T21:12:47.788Z,97933.95
2023-05-06T21:15:16.473Z,97933.29
2023-05-06T21:17:44.878Z,97939.32
2023-05-06T21:20:13.707Z,97941.02
2023-05-06T21:22:41.875Z,97942.83
2023-05-06T21:25:10.708Z,97946.33
2023-05-06T21:27:39.143Z,97943.57
2023-05-06T21:30:09.117Z,97943.53
2023-05-06T21:32:37.535Z,97942.16
2023-05-06T21:35:06.722Z,97946.44
2023-05-06T21:37:36.123Z,97950.45
2023-05-06T21:40:05.025Z,97956.63
2023-05-06T21:42:33.206Z,97955.60
2023-05-06T21:45:01.281Z,97953.70
2023-05-06T21:47:29.334Z,97957.63
2023-05-06T21:49:57.540Z,97964.16
2023-05-06T21:52:25.692Z,97965.48
2023-05-06T21:54:54.782Z,97965.66
2023-05-06T21:57:23.160Z,97961.63
2023-05-06T21:59:52.248Z,97955.86
2023-05-06T22:02:20.785Z,97957.92
2023-05-06T22:04:49.088Z,97957.17
2023-05-06T22:07:17.413Z,97953.29
2023-05-06T22:09:45.963Z,97955.20
2023-05-06T22:12:15.639Z,97953.16
2023-05-06T22:14:43.949Z,97953.16
2023-05-06T22:17:12.582Z,97950.45
2023-05-06T22:19:41.901Z,97948.57
2023-05-06T22:22:10.714Z,97948.13
2023-05-06T22:24:39.641Z,97947.72
2023-05-06T22:27:07.867Z,97950.33
2023-05-06T22:29:36.180Z,97947.59
2023-05-06T22:32:05.254Z,97945.17
2023-05-06T22:34:33.492Z,97942.33
2023-05-06T22:37:08.816Z,97940.06
2023-05-06T22:39:37.160Z,97943.90
2023-05-06T22:42:05.496Z,97946.34
2023-05-06T22:44:33.584Z,97945.78
2023-05-06T22:47:01.849Z,97946.92
2023-05-06T22:49:30.105Z,97947.73
2023-05-06T22:51:58.216Z,97943.59
2023-05-06T22:54:26.434Z,97937.67
2023-05-06T22:56:54.804Z,97935.41
2023-05-06T22:59:22.942Z,97942.29
2023-05-06T23:01:51.426Z,97945.67
2023-05-06T23:04:19.670Z,97945.61
2023-05-06T23:06:48.017Z,97947.69
2023-05-06T23:09:16.277Z,97943.11
2023-05-06T23:11:45.896Z,97940.02
2023-05-06T23:14:14.030Z,97934.80
2023-05-06T23:16:42.401Z,97935.80
2023-05-06T23:19:10.893Z,97929.02
2023-05-06T23:21:41.542Z,97924.67
2023-05-06T23:24:10.219Z,97925.67
2023-05-06T23:26:38.501Z,97922.52
2023-05-06T23:29:06.803Z,97921.80
2023-05-06T23:31:34.986Z,97923.41
2023-05-06T23:34:03.483Z,97920.98
2023-05-06T23:36:31.689Z,97918.92
2023-05-06T23:38:59.796Z,97917.39
2023-05-06T23:41:27.931Z,97915.21
2023-05-06T23:43:56.212Z,97916.89
2023-05-06T23:46:24.528Z,97916.45
2023-05-06T23:48:52.645Z,97912.52
2023-05-06T23:51:21.282Z,97909.98
2023-05-06T23:53:49.490Z,97911.09
2023-05-06T23:56:17.493Z,97908.99
2023-05-06T23:58:45.739Z,97902.48
